Tim Quigg — WDB6570 — position and weather

sailwx.info

Track history (hours):
 
Tides and Currents Weather Stations Pressure Air Temp Water Temp Dewpoint Dewpoint Depression Visibility Wind Speed Wind Dir Waves Ship Positions

Tim Quigg

Owner: Harley Marine Services, Inc, Seattle, WA. More information available from US FCC via Universal Licensing System and Coast Guard Vessel Documentation Center.

Last reported at 2017-Nov-16 16:26 UTC. Time now 2017-Nov-18 11:44 UTC.
Position N 33°45' W 118°13'.

; draft 4.4 m.

Type: Tug. MMSI: 366926740.

Date/timePositionNaut miles runAvg speedWind from/ knotsBaromVisibWave heightAir tempDewpointWater temp
2017-Nov-16 16:26N 33°45' W 118°13'1 0.5
2017-Nov-16 15:12N 33°46' W 118°13'3 3.7
2017-Nov-16 14:30N 33°44' W 118°12'0 0.6
2017-Nov-16 14:00N 33°44' W 118°12'3 4.3
2017-Nov-16 13:11N 33°43' W 118°16'2 7.1
2017-Nov-16 12:57N 33°45' W 118°16'1 0.8
2017-Nov-16 11:45N 33°46' W 118°16'2 7.0
2017-Nov-16 11:30N 33°44' W 118°16'1 0.1
2017-Nov-15 23:20N 33°44' W 118°15'0 0.2
2017-Nov-15 22:58N 33°44' W 118°15'1 1.5
2017-Nov-15 22:28N 33°43' W 118°16'3 0.7
2017-Nov-15 18:19N 33°45' W 118°13'1 1.1
2017-Nov-15 17:52N 33°45' W 118°13'3 0.7
2017-Nov-15 13:55N 33°44' W 118°16'1 1.7
2017-Nov-15 13:22N 33°45' W 118°16'0 0.6
2017-Nov-15 12:59N 33°45' W 118°16'0 0.5
2017-Nov-15 12:30N 33°45' W 118°17'1 2.7
2017-Nov-15 12:00N 33°43' W 118°16'0 1.0
2017-Nov-15 11:29N 33°44' W 118°16'0 0.0
2017-Nov-14 11:03N 33°44' W 118°16'0 0.0
2017-Nov-14 10:58N 33°44' W 118°16'0 0.0
2017-Nov-14 01:46N 33°44' W 118°16'3 2.1
2017-Nov-14 00:22N 33°44' W 118°12'3 7.5
2017-Nov-13 23:57N 33°46' W 118°15'1 2.8
2017-Nov-13 23:30N 33°46' W 118°17'1 1.1
2017-Nov-13 23:00N 33°45' W 118°16'2 3.2
2017-Nov-13 22:30N 33°44' W 118°16'2 3.8
2017-Nov-13 22:00N 33°43' W 118°14'3 0.1
2017-Nov-13 00:05N 33°45' W 118°17'  
2017-Nov-09 10:58N 33°44' W 118°12'3 0.1
2017-Nov-08 07:54N 33°44' W 118°16'0 0.0
2017-Nov-08 07:30N 33°44' W 118°16'0 0.0
2017-Nov-08 06:56N 33°44' W 118°16'0 0.0
2017-Nov-08 00:44N 33°44' W 118°16'0 0.0
2017-Nov-08 00:30N 33°44' W 118°16'0 0.0
2017-Nov-07 21:42N 33°44' W 118°16'0 0.0
2017-Nov-07 21:30N 33°44' W 118°16'0 0.0
2017-Nov-07 20:46N 33°44' W 118°16'0 0.0
2017-Nov-07 20:30N 33°44' W 118°16'0 0.0
2017-Nov-07 20:00N 33°44' W 118°16'0 0.0
2017-Nov-07 19:30N 33°44' W 118°16'0 0.0
2017-Nov-07 03:57N 33°44' W 118°16'0 0.0
2017-Nov-06 23:35N 33°44' W 118°16'  
Track history (hours):
 
Tides and Currents Weather Stations Pressure Air Temp Water Temp Dewpoint Dewpoint Depression Visibility Wind Speed Wind Dir Waves Ship Positions

Tim Quigg

Owner: Harley Marine Services, Inc, Seattle, WA. More information available from US FCC via Universal Licensing System and Coast Guard Vessel Documentation Center.

Last reported at 2017-Nov-16 16:26 UTC. Time now 2017-Nov-18 11:44 UTC.
Position N 33°45' W 118°13'.

; draft 4.4 m.

Type: Tug. MMSI: 366926740.

Date/timePositionNaut miles runAvg speedWind from/ knotsBaromVisibWave heightAir tempDewpointWater temp
2017-Nov-16 16:26N 33°45' W 118°13'1 0.5
2017-Nov-16 15:12N 33°46' W 118°13'3 3.7
2017-Nov-16 14:30N 33°44' W 118°12'0 0.6
2017-Nov-16 14:00N 33°44' W 118°12'3 4.3
2017-Nov-16 13:11N 33°43' W 118°16'2 7.1
2017-Nov-16 12:57N 33°45' W 118°16'1 0.8
2017-Nov-16 11:45N 33°46' W 118°16'2 7.0
2017-Nov-16 11:30N 33°44' W 118°16'1 0.1
2017-Nov-15 23:20N 33°44' W 118°15'0 0.2
2017-Nov-15 22:58N 33°44' W 118°15'1 1.5
2017-Nov-15 22:28N 33°43' W 118°16'3 0.7
2017-Nov-15 18:19N 33°45' W 118°13'1 1.1
2017-Nov-15 17:52N 33°45' W 118°13'3 0.7
2017-Nov-15 13:55N 33°44' W 118°16'1 1.7
2017-Nov-15 13:22N 33°45' W 118°16'0 0.6
2017-Nov-15 12:59N 33°45' W 118°16'0 0.5
2017-Nov-15 12:30N 33°45' W 118°17'1 2.7
2017-Nov-15 12:00N 33°43' W 118°16'0 1.0
2017-Nov-15 11:29N 33°44' W 118°16'0 0.0
2017-Nov-14 11:03N 33°44' W 118°16'0 0.0
2017-Nov-14 10:58N 33°44' W 118°16'0 0.0
2017-Nov-14 01:46N 33°44' W 118°16'3 2.1
2017-Nov-14 00:22N 33°44' W 118°12'3 7.5
2017-Nov-13 23:57N 33°46' W 118°15'1 2.8
2017-Nov-13 23:30N 33°46' W 118°17'1 1.1
2017-Nov-13 23:00N 33°45' W 118°16'2 3.2
2017-Nov-13 22:30N 33°44' W 118°16'2 3.8
2017-Nov-13 22:00N 33°43' W 118°14'3 0.1
2017-Nov-13 00:05N 33°45' W 118°17'  
2017-Nov-09 10:58N 33°44' W 118°12'3 0.1
2017-Nov-08 07:54N 33°44' W 118°16'0 0.0
2017-Nov-08 07:30N 33°44' W 118°16'0 0.0
2017-Nov-08 06:56N 33°44' W 118°16'0 0.0
2017-Nov-08 00:44N 33°44' W 118°16'0 0.0
2017-Nov-08 00:30N 33°44' W 118°16'0 0.0
2017-Nov-07 21:42N 33°44' W 118°16'0 0.0
2017-Nov-07 21:30N 33°44' W 118°16'0 0.0
2017-Nov-07 20:46N 33°44' W 118°16'0 0.0
2017-Nov-07 20:30N 33°44' W 118°16'0 0.0
2017-Nov-07 20:00N 33°44' W 118°16'0 0.0
2017-Nov-07 19:30N 33°44' W 118°16'0 0.0
2017-Nov-07 03:57N 33°44' W 118°16'0 0.0
2017-Nov-06 23:35N 33°44' W 118°16'  

Dump ship's entire track history